Time;durP1;ratioP1;P1;durP2;ratioP2;P2;SDS_P1;SDS_P2;PMS_P1;PMS_P2;Temp;Humidity;BMP_temperature;BMP_pressure;BME280_temperature;BME280_humidity;BME280_pressure;Samples;Min_cycle;Max_cycle;Signal;HPM_P1;HPM_P2
2023/10/13 00:00:30;;;;;;;;;;;;;;;22.40;61.88;100265.50;6111905;23;7175;-75
2023/10/13 00:03:02;;;;;;;;;;;;;;;22.41;62.23;100262.00;6109946;23;6803;-76
2023/10/13 00:05:32;;;;;;;;;;;;;;;22.42;61.54;100260.28;6109478;23;6943;-75
2023/10/13 00:08:03;;;;;;;;;;;;;;;22.44;62.00;100248.94;6110750;23;6771;-73
2023/10/13 00:10:29;;;;;;;;;;;;;;;22.45;62.11;100249.81;6111801;23;6771;-74
2023/10/13 00:13:06;;;;;;;;;;;;;;;22.45;61.92;100239.38;6110680;23;6778;-73
2023/10/13 00:15:38;;;;;;;;;;;;;;;22.45;61.75;100228.94;6109483;23;6775;-73
2023/10/13 00:18:12;;;;;;;;;;;;;;;22.45;61.92;100228.94;6130121;23;6958;-73
2023/10/13 00:20:40;;;;;;;;;;;;;;;22.45;61.79;100228.94;6107466;23;6839;-75
2023/10/13 00:23:06;;;;;;;;;;;;;;;22.45;61.47;100228.94;6130372;23;6779;-75
2023/10/13 00:25:43;;;;;;;;;;;;;;;22.46;61.89;100235.88;6139436;23;6754;-76
2023/10/13 00:28:09;;;;;;;;;;;;;;;;;;6090801;23;7046;-73
2023/10/13 00:30:36;;;;;;;;;;;;;;;22.51;62.14;100228.06;6140650;23;7051;-75
2023/10/13 00:33:04;;;;;;;;;;;;;;;22.52;62.47;100222.84;6114698;23;6795;-73
2023/10/13 00:35:36;;;;;;;;;;;;;;;22.54;61.95;100217.59;6116363;23;6775;-75
2023/10/13 00:38:04;;;;;;;;;;;;;;;22.55;61.84;100208.88;6089736;23;7168;-74
2023/10/13 00:45:56;;;;;;;;;;;;;;;22.42;61.99;100205.44;6118381;23;6771;-75
2023/10/13 00:48:34;;;;;;;;;;;;;;;22.36;62.25;100202.84;6090228;23;7228;-74
2023/10/13 00:51:12;;;;;;;;;;;;;;;22.31;62.78;100198.53;6139991;23;6938;-74
2023/10/13 00:53:40;;;;;;;;;;;;;;;22.27;62.47;100198.56;6140161;23;6847;-74
2023/10/13 00:56:07;;;;;;;;;;;;;;;22.24;62.76;100198.53;6115087;23;6914;-73
2023/10/13 00:58:40;;;;;;;;;;;;;;;22.20;62.61;100200.28;6117139;23;6771;-74
2023/10/13 01:01:18;;;;;;;;;;;;;;;22.15;62.59;100194.22;6115263;23;6835;-74
2023/10/13 01:03:59;;;;;;;;;;;;;;;22.12;63.08;100194.25;6120062;23;6775;-73
2023/10/13 01:06:27;;;;;;;;;;;;;;;22.09;62.89;100194.25;6110479;23;6926;-77
2023/10/13 01:09:18;;;;;;;;;;;;;;;22.07;62.87;100186.44;6093112;23;6935;-76
2023/10/13 01:11:55;;;;;;;;;;;;;;;22.05;62.93;100186.44;6095546;23;6771;-76
2023/10/13 01:14:23;;;;;;;;;;;;;;;22.05;63.20;100173.38;6093962;23;8128;-75
2023/10/13 01:16:52;;;;;;;;;;;;;;;22.04;63.29;100169.03;6093440;23;6779;-76
2023/10/13 01:19:24;;;;;;;;;;;;;;;22.04;63.28;100174.25;6093895;23;6775;-77
2023/10/13 01:21:54;;;;;;;;;;;;;;;22.04;63.75;100165.53;6093309;23;6775;-76
2023/10/13 01:24:23;;;;;;;;;;;;;;;22.06;63.44;100169.00;6070653;23;7241;-76
2023/10/13 01:26:52;;;;;;;;;;;;;;;22.06;63.57;100161.19;6095386;23;6888;-76
2023/10/13 01:29:19;;;;;;;;;;;;;;;22.09;63.90;100152.50;6071092;23;6999;-76
2023/10/13 01:31:46;;;;;;;;;;;;;;;22.11;63.96;100153.34;6093739;23;6925;-76
2023/10/13 01:34:23;;;;;;;;;;;;;;;22.11;63.59;100153.34;6070279;23;7225;-76
2023/10/13 01:36:55;;;;;;;;;;;;;;;22.13;63.74;100151.63;6070805;23;6977;-77
2023/10/13 01:39:28;;;;;;;;;;;;;;;22.13;63.87;100155.09;6094598;23;6771;-77
2023/10/13 01:41:55;;;;;;;;;;;;;;;22.12;63.41;100147.28;6093637;23;7286;-77
2023/10/13 01:44:27;;;;;;;;;;;;;;;22.09;63.59;100142.94;6093891;23;6783;-76
2023/10/13 01:46:53;;;;;;;;;;;;;;;22.08;64.07;100140.31;6094601;23;7124;-77
2023/10/13 01:49:21;;;;;;;;;;;;;;;22.05;63.62;100134.25;6070566;23;7181;-76
2023/10/13 01:51:47;;;;;;;;;;;;;;;22.03;63.71;100128.16;6093459;23;7194;-73
2023/10/13 01:54:15;;;;;;;;;;;;;;;22.03;64.05;100122.94;6094355;23;6998;-77
2023/10/13 01:56:44;;;;;;;;;;;;;;;22.03;64.29;100124.69;6093789;23;6979;-76
2023/10/13 01:59:13;;;;;;;;;;;;;;;22.03;64.14;100122.94;6095355;23;6783;-77
2023/10/13 02:01:41;;;;;;;;;;;;;;;22.05;64.14;100115.09;6069572;23;7213;-75
2023/10/13 02:04:10;;;;;;;;;;;;;;;22.04;64.36;100111.63;6094438;23;6775;-76
2023/10/13 02:06:37;;;;;;;;;;;;;;;22.06;64.10;100109.00;6067976;23;7386;-77
2023/10/13 02:09:12;;;;;;;;;;;;;;;22.07;64.11;100108.16;6094395;23;6774;-74
2023/10/13 02:11:47;;;;;;;;;;;;;;;22.06;64.18;100093.34;6095552;23;7628;-77
2023/10/13 02:14:16;;;;;;;;;;;;;;;22.07;64.48;100100.31;6095705;23;6778;-77
2023/10/13 02:16:42;;;;;;;;;;;;;;;22.08;64.37;100098.56;6096605;23;6783;-77
2023/10/13 02:19:08;;;;;;;;;;;;;;;22.08;64.39;100098.56;6094774;23;6843;-77
2023/10/13 02:21:45;;;;;;;;;;;;;;;22.05;64.39;100089.88;6092564;23;7070;-77
2023/10/13 02:24:17;;;;;;;;;;;;;;;22.06;64.46;100102.06;6094201;23;6778;-77
2023/10/13 02:26:44;;;;;;;;;;;;;;;22.06;64.52;100086.41;6093266;23;6775;-76
2023/10/13 02:29:12;;;;;;;;;;;;;;;22.06;64.39;100081.19;6069770;23;7282;-77
2023/10/13 02:31:42;;;;;;;;;;;;;;;22.05;64.73;100069.00;6117310;23;7200;-77
2023/10/13 02:34:08;;;;;;;;;;;;;;;22.05;64.72;100073.34;6070272;23;6951;-76
2023/10/13 02:36:54;;;;;;;;;;;;;;;22.05;64.95;100074.22;6093009;23;6763;-77
2023/10/13 02:39:36;;;;;;;;;;;;;;;22.03;64.81;100065.53;6072512;23;6963;-75
2023/10/13 02:42:06;;;;;;;;;;;;;;;22.03;64.79;100049.91;6118331;23;7174;-77
2023/10/13 02:44:36;;;;;;;;;;;;;;;22.04;64.86;100051.63;6119821;23;6775;-77
2023/10/13 02:47:13;;;;;;;;;;;;;;;22.05;64.98;100052.47;6093625;23;6851;-74
2023/10/13 02:49:43;;;;;;;;;;;;;;;22.04;65.04;100041.19;6096775;23;6771;-77
2023/10/13 02:52:12;;;;;;;;;;;;;;;22.05;65.00;100042.03;6094831;23;6779;-76
2023/10/13 02:54:42;;;;;;;;;;;;;;;22.05;64.99;100035.09;6094726;23;6771;-76
2023/10/13 02:57:08;;;;;;;;;;;;;;;22.08;64.89;100033.34;6117647;23;6962;-77
2023/10/13 02:59:55;;;;;;;;;;;;;;;22.10;65.01;100026.34;6093951;23;6763;-75
2023/10/13 03:02:25;;;;;;;;;;;;;;;22.12;65.29;100030.69;6073949;23;7149;-77
2023/10/13 03:05:08;;;;;;;;;;;;;;;22.13;64.85;100022.00;6070064;23;7245;-76
2023/10/13 03:07:36;;;;;;;;;;;;;;;22.17;65.39;100010.69;6096020;23;6924;-75
2023/10/13 03:10:10;;;;;;;;;;;;;;;22.19;64.85;100014.13;6093680;23;6914;-77
2023/10/13 03:12:40;;;;;;;;;;;;;;;22.23;64.89;100008.88;6093971;23;6974;-76
2023/10/13 03:17:36;;;;;;;;;;;;;;;22.26;64.94;99994.06;6105179;23;6767;-76
2023/10/13 03:20:04;;;;;;;;;;;;;;;22.29;65.04;99999.25;6070341;23;6943;-76
2023/10/13 03:22:31;;;;;;;;;;;;;;;22.31;65.14;99989.72;6118789;23;6779;-74
2023/10/13 03:25:06;;;;;;;;;;;;;;;22.33;64.61;99980.13;6093224;23;6775;-74
2023/10/13 03:30:17;;;;;;;;;;;;;;;22.36;64.42;99967.91;6107059;23;6974;-72
2023/10/13 03:32:46;;;;;;;;;;;;;;;22.37;64.77;99969.63;6093804;23;6770;-72
2023/10/13 03:35:59;;;;;;;;;;;;;;;22.40;64.83;99972.22;6117560;23;6771;-72
2023/10/13 03:38:01;;;;;;;;;;;;;;;22.43;64.70;99978.28;6087208;23;6775;-74
2023/10/13 03:45:44;;;;;;;;;;;;;;;22.46;64.70;99974.78;6127615;23;6771;-72
2023/10/13 03:51:06;;;;;;;;;;;;;;;22.48;64.74;99984.34;6096663;23;6824;-73
2023/10/13 03:53:52;;;;;;;;;;;;;;;22.45;64.47;99965.22;6097020;23;8087;-72
2023/10/13 04:04:11;;;;;;;;;;;;;;;22.31;65.30;99934.88;6130816;23;6755;-73
2023/10/13 04:17:22;;;;;;;;;;;;;;;22.26;65.13;99914.91;6107489;23;7121;-73
2023/10/13 04:25:35;;;;;;;;;;;;;;;22.26;65.47;99901.84;6104609;23;6767;-72
2023/10/13 04:33:35;;;;;;;;;;;;;;;22.27;65.41;99899.22;6128491;23;6748;-73
2023/10/13 04:36:16;;;;;;;;;;;;;;;22.30;65.55;99890.53;6097559;23;6970;-72
2023/10/13 04:41:42;;;;;;;;;;;;;;;22.31;65.95;99881.81;6130210;23;6974;-77
2023/10/13 05:02:55;;;;;;;;;;;;;;;22.27;65.63;99880.97;6093276;23;6928;-77
2023/10/13 06:30:12;;;;;;;;;;;;;;;22.86;65.64;99770.69;6095192;23;7081;-78
2023/10/13 06:32:39;;;;;;;;;;;;;;;22.91;64.94;99782.84;6088765;23;7026;-76
2023/10/13 06:35:09;;;;;;;;;;;;;;;22.94;64.87;99782.81;6116907;23;6766;-75
2023/10/13 06:37:41;;;;;;;;;;;;;;;22.98;65.18;99784.47;6077930;23;6969;-77
2023/10/13 06:42:47;;;;;;;;;;;;;;;23.07;64.96;99773.91;6104646;23;7707;-78
2023/10/13 06:45:13;;;;;;;;;;;;;;;23.12;65.23;99781.69;6091635;23;6783;-77
2023/10/13 06:47:44;;;;;;;;;;;;;;;23.17;64.83;99785.09;6068007;23;6927;-77
2023/10/13 06:50:19;;;;;;;;;;;;;;;23.23;64.72;99774.56;6092199;23;6933;-78
2023/10/13 06:52:49;;;;;;;;;;;;;;;23.28;65.10;99777.16;6093370;23;6779;-77
2023/10/13 06:55:23;;;;;;;;;;;;;;;23.33;64.87;99788.38;6091396;23;6952;-78
2023/10/13 06:57:51;;;;;;;;;;;;;;;23.37;64.88;99781.38;6076036;23;7025;-75
2023/10/13 07:00:27;;;;;;;;;;;;;;;23.41;64.13;99777.81;6098490;23;7001;-78
2023/10/13 07:02:53;;;;;;;;;;;;;;;23.46;64.57;99783.84;6077144;23;6819;-79
2023/10/13 07:05:19;;;;;;;;;;;;;;;23.50;64.17;99776.81;6098252;23;6767;-73
2023/10/13 07:07:47;;;;;;;;;;;;;;;23.55;63.89;99770.63;6099234;23;6763;-75
2023/10/13 07:10:14;;;;;;;;;;;;;;;23.61;63.93;99767.06;6076748;23;6963;-77
2023/10/13 07:12:43;;;;;;;;;;;;;;;23.65;63.71;99766.09;6100074;23;7194;-77
2023/10/13 07:17:45;;;;;;;;;;;;;;;23.75;63.66;99771.19;6111683;23;6993;-78
2023/10/13 07:20:44;;;;;;;;;;;;;;;23.78;62.98;99768.53;6101875;23;7086;-74
2023/10/13 07:23:06;;;;;;;;;;;;;;;23.81;63.25;99771.09;6109524;23;6947;-74
2023/10/13 07:25:37;;;;;;;;;;;;;;;23.84;63.24;99771.03;6103053;23;6783;-74
2023/10/13 07:28:04;;;;;;;;;;;;;;;23.85;62.64;99775.38;6104407;23;7041;-77
2023/10/13 07:30:39;;;;;;;;;;;;;;;23.87;62.75;99771.00;6103427;23;6926;-76
2023/10/13 07:33:05;;;;;;;;;;;;;;;23.89;62.63;99774.44;6106944;23;6783;-76
2023/10/13 07:35:35;;;;;;;;;;;;;;;23.90;62.70;99778.78;6079785;23;6960;-75
2023/10/13 07:38:02;;;;;;;;;;;;;;;23.90;62.51;99768.31;6080514;23;7224;-74
2023/10/13 07:43:00;;;;;;;;;;;;;;;23.92;61.66;99777.00;6104120;23;6755;-76
2023/10/13 07:45:40;;;;;;;;;;;;;;;23.94;61.28;99762.13;6106364;23;6779;-76
2023/10/13 07:48:20;;;;;;;;;;;;;;;23.95;61.71;99756.03;6105555;23;6775;-76
2023/10/13 07:50:58;;;;;;;;;;;;;;;23.97;61.51;99756.88;6107544;23;6775;-75
2023/10/13 07:53:23;;;;;;;;;;;;;;;24.01;61.41;99757.69;6107532;23;6906;-76
2023/10/13 07:55:55;;;;;;;;;;;;;;;24.05;60.80;99758.53;6079439;23;6835;-75
2023/10/13 07:58:25;;;;;;;;;;;;;;;24.10;60.98;99749.69;6081257;23;6819;-77
2023/10/13 08:01:06;;;;;;;;;;;;;;;24.17;60.46;99760.03;6103224;23;6771;-79
2023/10/13 08:03:44;;;;;;;;;;;;;;;24.23;60.01;99746.84;6108937;23;6766;-73
2023/10/13 08:08:39;;;;;;;;;;;;;;;24.37;59.67;99751.81;6098588;23;6782;-71
2023/10/13 08:11:25;;;;;;;;;;;;;;;24.43;58.80;99753.44;6093948;23;6949;-73
2023/10/13 08:13:59;;;;;;;;;;;;;;;24.48;58.75;99735.88;6096439;23;6783;-72
2023/10/13 08:16:52;;;;;;;;;;;;;;;24.54;58.64;99736.63;6093413;23;6843;-72
2023/10/13 08:19:26;;;;;;;;;;;;;;;24.61;58.58;99733.84;6117396;23;6993;-70
2023/10/13 08:21:59;;;;;;;;;;;;;;;24.68;57.64;99736.34;6094603;23;6775;-71
2023/10/13 08:42:52;;;;;;;;;;;;;;;25.36;55.14;99713.00;6104020;23;6767;-71
2023/10/13 08:48:18;;;;;;;;;;;;;;;25.60;54.70;99708.09;6104688;23;6838;-74
2023/10/13 08:53:32;;;;;;;;;;;;;;;25.78;52.25;99700.63;6104866;23;6763;-72
2023/10/13 09:07:09;;;;;;;;;;;;;;;26.14;52.23;99690.03;6105874;23;6906;-73
2023/10/13 09:12:13;;;;;;;;;;;;;;;26.41;51.51;99686.69;6119021;23;6752;-73
2023/10/13 09:14:45;;;;;;;;;;;;;;;26.55;51.60;99684.53;6093969;23;6775;-74
2023/10/13 09:19:47;;;;;;;;;;;;;;;26.80;50.73;99682.91;6129413;23;6795;-73
2023/10/13 09:22:35;;;;;;;;;;;;;;;26.86;51.19;99677.47;6092009;23;6971;-75
2023/10/13 09:25:02;;;;;;;;;;;;;;;26.90;50.27;99668.59;6096535;23;6791;-73
2023/10/13 09:27:33;;;;;;;;;;;;;;;26.96;50.29;99652.66;6094865;23;6775;-73
2023/10/13 09:30:18;;;;;;;;;;;;;;;27.08;50.13;99658.41;6120269;23;6778;-72
2023/10/13 09:32:50;;;;;;;;;;;;;;;27.21;49.61;99641.31;6042310;23;13385;-74
2023/10/13 09:35:19;;;;;;;;;;;;;;;27.28;48.91;99652.47;6066231;23;6763;-73
2023/10/13 09:37:48;;;;;;;;;;;;;;;27.32;48.98;99635.69;6064498;23;6779;-73
2023/10/13 09:40:25;;;;;;;;;;;;;;;27.38;48.59;99647.78;6089756;23;6783;-73
2023/10/13 09:42:56;;;;;;;;;;;;;;;27.47;48.23;99659.75;6043370;23;6971;-72
2023/10/13 09:48:26;;;;;;;;;;;;;;;27.67;48.27;99674.91;6069113;23;6775;-73
2023/10/13 09:50:59;;;;;;;;;;;;;;;27.77;47.64;99663.13;6038505;23;6965;-72
2023/10/13 09:53:25;;;;;;;;;;;;;;;27.88;47.15;99656.63;6065122;23;6963;-72
2023/10/13 09:56:13;;;;;;;;;;;;;;;28.00;47.22;99648.28;6089877;23;6783;-75
2023/10/13 09:58:51;;;;;;;;;;;;;;;28.17;47.37;99642.41;6066837;23;6783;-73
2023/10/13 10:01:37;;;;;;;;;;;;;;;28.41;47.79;99637.13;6062935;23;7145;-73
2023/10/13 10:04:10;;;;;;;;;;;;;;;29.00;46.75;99634.84;6064281;23;6783;-72
2023/10/13 10:06:40;;;;;;;;;;;;;;;29.78;46.07;99632.47;6064040;23;6894;-75
2023/10/13 10:09:11;;;;;;;;;;;;;;;30.56;43.22;99628.09;6064450;23;7328;-73
2023/10/13 10:12:18;;;;;;;;;;;;;;;31.24;41.13;99626.63;6090454;23;6775;-74
2023/10/13 10:15:05;;;;;;;;;;;;;;;31.59;38.91;99608.94;6089588;23;6933;-72
2023/10/13 10:17:43;;;;;;;;;;;;;;;31.67;39.36;99610.31;6089458;23;6783;-75
2023/10/13 10:20:39;;;;;;;;;;;;;;;31.77;39.04;99610.69;6089284;23;6864;-74
2023/10/13 10:23:00;;;;;;;;;;;;;;;31.99;38.75;99616.59;6087505;23;6828;-74
2023/10/13 10:25:37;;;;;;;;;;;;;;;32.33;38.56;99623.59;6085742;23;6949;-73
2023/10/13 10:28:06;;;;;;;;;;;;;;;32.59;37.36;99613.38;6041077;23;7026;-73
2023/10/13 10:30:37;;;;;;;;;;;;;;;32.84;36.98;99607.50;6084490;23;7033;-75
2023/10/13 10:33:12;;;;;;;;;;;;;;;33.04;36.62;99601.09;6064835;23;7041;-75
2023/10/13 10:35:43;;;;;;;;;;;;;;;33.23;35.84;99608.78;6062457;23;6827;-74
2023/10/13 10:38:32;;;;;;;;;;;;;;;33.18;35.13;99604.72;6063160;23;6788;-73
2023/10/13 10:41:04;;;;;;;;;;;;;;;32.63;35.28;99604.28;6067563;23;6959;-73
2023/10/13 10:43:43;;;;;;;;;;;;;;;32.06;36.29;99595.91;6064063;23;6843;-72
2023/10/13 10:46:13;;;;;;;;;;;;;;;31.80;36.41;99589.34;6089679;23;6779;-72
2023/10/13 10:48:45;;;;;;;;;;;;;;;31.88;36.78;99595.13;6041159;23;6996;-73
2023/10/13 10:51:22;;;;;;;;;;;;;;;31.97;36.83;99581.38;6067782;23;6855;-72
2023/10/13 10:53:52;;;;;;;;;;;;;;;32.05;36.79;99580.94;6089951;23;6962;-73
2023/10/13 10:56:24;;;;;;;;;;;;;;;32.13;36.94;99578.72;6065702;23;6982;-73
2023/10/13 10:58:55;;;;;;;;;;;;;;;32.24;36.23;99570.16;6091337;23;6782;-74
2023/10/13 11:01:23;;;;;;;;;;;;;;;32.00;36.08;99562.66;6064743;23;6943;-73
2023/10/13 11:04:08;;;;;;;;;;;;;;;31.59;36.27;99568.38;6063954;23;6775;-73
2023/10/13 11:06:42;;;;;;;;;;;;;;;31.20;36.50;99567.69;6067851;23;7308;-73
2023/10/13 11:10:06;;;;;;;;;;;;;;;30.86;37.23;99562.31;6041588;23;7151;-74
2023/10/13 11:11:57;;;;;;;;;;;;;;;30.59;36.69;99559.25;6055806;23;6981;-74
2023/10/13 11:14:28;;;;;;;;;;;;;;;30.43;37.07;99559.13;6065935;23;7262;-73
2023/10/13 11:17:19;;;;;;;;;;;;;;;30.26;37.48;99563.44;6091072;23;6775;-73
2023/10/13 11:19:45;;;;;;;;;;;;;;;30.05;37.22;99571.44;6069445;23;6910;-73
2023/10/13 11:25:34;;;;;;;;;;;;;;;29.66;37.59;99561.75;6013295;23;6949;-73
2023/10/13 11:28:20;;;;;;;;;;;;;;;29.45;37.45;99561.75;6081485;23;6990;-73
2023/10/13 11:30:50;;;;;;;;;;;;;;;29.28;37.75;99554.56;6065192;23;7035;-72
2023/10/13 11:33:29;;;;;;;;;;;;;;;29.14;38.34;99546.41;6067395;23;7742;-72
2023/10/13 11:36:02;;;;;;;;;;;;;;;29.03;38.65;99531.03;6067691;23;6998;-73
2023/10/13 11:38:57;;;;;;;;;;;;;;;28.92;37.83;99537.59;6067776;23;6834;-71
2023/10/13 11:41:19;;;;;;;;;;;;;;;28.84;38.11;99539.72;6090154;23;6775;-72
2023/10/13 11:43:52;;;;;;;;;;;;;;;28.76;38.76;99537.38;6092891;23;7345;-74
2023/10/13 11:51:49;;;;;;;;;;;;;;;28.59;38.57;99526.66;6079778;23;6859;-72
2023/10/13 11:54:17;;;;;;;;;;;;;;;28.55;38.47;99528.56;6066177;23;6973;-72
2023/10/13 11:56:46;;;;;;;;;;;;;;;28.51;38.76;99524.34;6064347;23;7066;-73
2023/10/13 11:59:27;;;;;;;;;;;;;;;28.46;38.82;99513.13;6091069;23;6775;-72
2023/10/13 12:04:51;;;;;;;;;;;;;;;28.46;38.84;99513.13;6080469;23;6907;-72
2023/10/13 12:07:40;;;;;;;;;;;;;;;28.48;38.26;99514.78;6069134;23;6779;-73
2023/10/13 12:10:14;;;;;;;;;;;;;;;28.51;38.22;99517.28;6071276;23;7171;-72
2023/10/13 12:12:42;;;;;;;;;;;;;;;28.51;37.97;99501.47;6045382;23;6954;-72
2023/10/13 12:15:09;;;;;;;;;;;;;;;28.52;38.24;99507.59;6066071;23;6779;-71
2023/10/13 12:17:36;;;;;;;;;;;;;;;28.50;37.40;99505.03;6066869;23;6846;-73
2023/10/13 12:20:10;;;;;;;;;;;;;;;28.50;37.32;99504.19;6066956;23;6941;-72
2023/10/13 12:22:42;;;;;;;;;;;;;;;28.52;38.13;99508.44;6066042;23;7033;-71
2023/10/13 12:28:06;;;;;;;;;;;;;;;28.61;37.42;99506.34;6070596;23;6767;-73
2023/10/13 12:30:52;;;;;;;;;;;;;;;28.62;37.30;99508.06;6064826;23;6967;-74
2023/10/13 12:33:26;;;;;;;;;;;;;;;28.59;37.07;99498.53;6044684;23;7355;-72
2023/10/13 12:36:27;;;;;;;;;;;;;;;28.59;37.26;99498.53;6089793;23;6767;-72
2023/10/13 12:48:55;;;;;;;;;;;;;;;28.54;36.52;99500.50;6066148;23;6812;-72
2023/10/13 12:49:57;;;;;;;;;;;;;;;28.61;37.32;99490.53;6068158;23;6771;-74
2023/10/13 12:52:26;;;;;;;;;;;;;;;28.66;37.43;99488.59;6039734;23;6967;-73
2023/10/13 12:57:22;;;;;;;;;;;;;;;28.77;37.14;99490.75;6088211;23;6899;-74
2023/10/13 12:59:53;;;;;;;;;;;;;;;28.79;37.20;99489.78;6041708;23;7391;-72
2023/10/13 13:02:20;;;;;;;;;;;;;;;28.79;37.01;99507.38;6063205;23;6779;-72
2023/10/13 13:04:48;;;;;;;;;;;;;;;28.77;36.82;99502.16;6089197;23;6778;-75
2023/10/13 13:07:13;;;;;;;;;;;;;;;28.73;36.89;99500.59;6065611;23;6952;-72
2023/10/13 13:09:40;;;;;;;;;;;;;;;28.68;37.02;99492.88;6041273;23;6946;-72
2023/10/13 13:12:06;;;;;;;;;;;;;;;28.62;36.91;99503.66;6041889;23;6984;-71
2023/10/13 13:14:34;;;;;;;;;;;;;;;28.56;37.23;99509.19;6062204;23;6763;-71
2023/10/13 13:17:06;;;;;;;;;;;;;;;28.52;37.16;99510.25;6064061;23;6775;-73
2023/10/13 13:19:40;;;;;;;;;;;;;;;28.46;37.25;99510.47;6062865;23;7159;-72
2023/10/13 13:22:13;;;;;;;;;;;;;;;28.39;37.10;99500.22;6091056;23;6972;-72
2023/10/13 13:24:43;;;;;;;;;;;;;;;28.37;37.09;99491.50;6067758;23;6783;-73
2023/10/13 13:27:14;;;;;;;;;;;;;;;28.33;36.76;99502.22;6064987;23;6779;-73
2023/10/13 13:29:49;;;;;;;;;;;;;;;28.31;37.34;99493.53;6062119;23;6976;-72
2023/10/13 13:32:28;;;;;;;;;;;;;;;28.29;37.43;99480.41;6064201;23;6783;-72
2023/10/13 13:34:57;;;;;;;;;;;;;;;28.30;37.20;99492.69;6068632;23;6775;-72
2023/10/13 13:37:22;;;;;;;;;;;;;;;28.34;37.45;99489.00;6066315;23;6771;-72
2023/10/13 13:39:48;;;;;;;;;;;;;;;28.37;37.42;99494.13;6066765;23;6767;-73
2023/10/13 13:42:17;;;;;;;;;;;;;;;28.36;37.13;99487.13;6065181;23;7036;-72
2023/10/13 13:44:46;;;;;;;;;;;;;;;28.34;37.25;99489.00;6066268;23;6939;-72
2023/10/13 13:47:16;;;;;;;;;;;;;;;28.28;36.61;99490.09;6065295;23;7119;-73
2023/10/13 13:49:51;;;;;;;;;;;;;;;28.24;36.71;99485.84;6065498;23;6825;-71
2023/10/13 13:52:21;;;;;;;;;;;;;;;28.20;36.61;99481.63;6042583;23;6833;-73
2023/10/13 13:54:47;;;;;;;;;;;;;;;28.16;37.14;99482.66;6065454;23;6827;-72
2023/10/13 13:57:13;;;;;;;;;;;;;;;28.12;37.21;99484.56;6064268;23;6779;-72
2023/10/13 13:59:43;;;;;;;;;;;;;;;28.07;37.32;99480.38;6071540;23;6933;-78
2023/10/13 14:02:19;;;;;;;;;;;;;;;28.04;37.05;99493.66;6073144;23;7006;-76
2023/10/13 14:04:50;;;;;;;;;;;;;;;27.99;36.98;99480.69;6078879;23;7163;-79
2023/10/13 14:07:19;;;;;;;;;;;;;;;27.94;36.84;99478.22;6126172;23;6770;-76
2023/10/13 14:09:51;;;;;;;;;;;;;;;27.89;36.47;99471.41;6153734;23;6783;-76
2023/10/13 14:12:36;;;;;;;;;;;;;;;27.84;36.56;99464.56;6157673;23;6898;-75
2023/10/13 14:15:03;;;;;;;;;;;;;;;27.76;36.85;99474.53;6128830;23;6953;-75
2023/10/13 14:17:28;;;;;;;;;;;;;;;27.71;36.71;99477.34;6159006;23;6951;-75
2023/10/13 14:19:57;;;;;;;;;;;;;;;27.66;36.91;99470.53;6136255;23;6830;-76
2023/10/13 14:22:24;;;;;;;;;;;;;;;27.60;36.85;99469.00;6131176;23;6969;-74
2023/10/13 14:24:55;;;;;;;;;;;;;;;27.57;37.07;99477.84;6134516;23;6998;-76
2023/10/13 14:27:25;;;;;;;;;;;;;;;27.52;37.44;99477.13;6136127;23;6787;-75
2023/10/13 14:29:54;;;;;;;;;;;;;;;27.47;37.14;99462.44;6160261;23;6986;-74
2023/10/13 14:32:24;;;;;;;;;;;;;;;27.41;37.25;99456.50;6109692;23;7411;-77
2023/10/13 14:34:54;;;;;;;;;;;;;;;27.39;37.68;99457.47;6160126;23;6775;-75
2023/10/13 14:37:26;;;;;;;;;;;;;;;27.36;37.51;99450.53;6155094;23;7010;-76
2023/10/13 14:39:59;;;;;;;;;;;;;;;27.33;37.40;99455.91;6132223;23;6771;-76
2023/10/13 14:42:27;;;;;;;;;;;;;;;27.28;37.41;99465.72;6132123;23;6787;-76
2023/10/13 14:44:56;;;;;;;;;;;;;;;27.25;37.87;99460.59;6132024;23;6771;-76
2023/10/13 14:47:25;;;;;;;;;;;;;;;27.17;37.44;99456.47;6106918;23;6775;-75
2023/10/13 14:49:55;;;;;;;;;;;;;;;27.14;38.09;99453.13;6154808;23;6893;-78
2023/10/13 14:52:22;;;;;;;;;;;;;;;27.10;37.90;99441.84;6157204;23;6770;-77
2023/10/13 14:54:55;;;;;;;;;;;;;;;27.08;37.75;99445.44;6131190;23;6778;-78
2023/10/13 14:57:25;;;;;;;;;;;;;;;27.05;37.93;99449.03;6105269;23;7175;-75
2023/10/13 14:59:54;;;;;;;;;;;;;;;27.03;37.85;99438.56;6127990;23;6823;-76
2023/10/13 15:02:21;;;;;;;;;;;;;;;27.01;37.94;99435.13;6153344;23;6956;-76
2023/10/13 15:04:48;;;;;;;;;;;;;;;27.00;38.03;99433.41;6126187;23;7224;-76
2023/10/13 15:07:16;;;;;;;;;;;;;;;27.01;38.13;99424.59;6148924;23;6782;-74
2023/10/13 15:09:42;;;;;;;;;;;;;;;27.01;38.34;99453.53;6118992;23;7038;-73
2023/10/13 15:12:11;;;;;;;;;;;;;;;27.01;38.07;99437.75;6094770;23;6961;-72
2023/10/13 15:14:43;;;;;;;;;;;;;;;27.01;38.15;99432.50;6119063;23;6779;-72
2023/10/13 15:17:10;;;;;;;;;;;;;;;27.00;38.07;99425.53;6093801;23;6984;-73
2023/10/13 15:19:38;;;;;;;;;;;;;;;27.00;38.06;99425.53;6090862;23;6847;-72
2023/10/13 15:22:12;;;;;;;;;;;;;;;27.01;38.21;99426.41;6070280;23;7100;-72
2023/10/13 15:24:59;;;;;;;;;;;;;;;26.99;38.24;99433.47;6118750;23;6974;-72
2023/10/13 15:27:28;;;;;;;;;;;;;;;26.95;38.42;99424.84;6119046;23;6850;-72
2023/10/13 15:29:54;;;;;;;;;;;;;;;26.91;38.20;99425.84;6094011;23;6951;-72
2023/10/13 15:35:05;;;;;;;;;;;;;;;26.82;38.36;99440.16;6098887;23;6775;-72
2023/10/13 15:37:30;;;;;;;;;;;;;;;26.78;38.50;99417.50;6096605;23;6851;-71
2023/10/13 15:39:57;;;;;;;;;;;;;;;26.78;38.41;99419.28;6096420;23;6762;-72
2023/10/13 15:42:23;;;;;;;;;;;;;;;26.73;38.50;99422.91;6093947;23;6975;-72
2023/10/13 15:44:50;;;;;;;;;;;;;;;26.70;38.58;99404.63;6092907;23;6763;-72
2023/10/13 15:47:15;;;;;;;;;;;;;;;26.68;38.86;99413.47;6113969;23;6775;-72
2023/10/13 15:49:42;;;;;;;;;;;;;;;26.66;38.67;99410.06;6111176;23;6910;-72
2023/10/13 15:52:09;;;;;;;;;;;;;;;26.63;38.68;99416.28;6089872;23;6779;-72
2023/10/13 15:54:35;;;;;;;;;;;;;;;26.59;38.77;99412.03;6110264;23;6775;-71
2023/10/13 15:57:01;;;;;;;;;;;;;;;26.54;38.65;99404.31;6113997;23;6767;-72
2023/10/13 15:59:27;;;;;;;;;;;;;;;26.51;38.79;99401.81;6089369;23;6934;-72
2023/10/13 16:01:57;;;;;;;;;;;;;;;26.50;39.13;99407.09;6093440;23;6839;-72
2023/10/13 16:04:23;;;;;;;;;;;;;;;26.46;38.97;99406.34;6083708;23;6779;-73
2023/10/13 16:06:51;;;;;;;;;;;;;;;26.43;39.47;99398.56;6084768;23;7163;-71
2023/10/13 16:09:23;;;;;;;;;;;;;;;26.39;39.14;99397.81;6059828;23;6771;-73
2023/10/13 16:11:54;;;;;;;;;;;;;;;26.34;39.23;99402.34;6082610;23;7217;-72
2023/10/13 16:14:20;;;;;;;;;;;;;;;26.30;39.35;99393.72;6081510;23;6851;-71
2023/10/13 16:16:49;;;;;;;;;;;;;;;26.25;39.53;99382.53;6060044;23;7134;-72
2023/10/13 16:19:23;;;;;;;;;;;;;;;26.19;39.35;99385.31;6061744;23;6767;-75
2023/10/13 16:21:51;;;;;;;;;;;;;;;26.13;39.78;99394.25;6083559;23;7703;-73
2023/10/13 16:24:19;;;;;;;;;;;;;;;26.11;39.92;99382.94;6083827;23;6775;-73
2023/10/13 16:26:49;;;;;;;;;;;;;;;26.09;39.83;99374.25;6083064;23;6978;-73
2023/10/13 16:29:22;;;;;;;;;;;;;;;26.09;39.66;99376.88;6061313;23;6960;-74
2023/10/13 16:31:48;;;;;;;;;;;;;;;26.07;39.42;99376.94;6084057;23;7049;-72
2023/10/13 16:34:16;;;;;;;;;;;;;;;26.06;39.95;99379.59;6059925;23;6858;-73
2023/10/13 16:36:47;;;;;;;;;;;;;;;26.02;40.08;99373.56;6061700;23;6970;-73
2023/10/13 16:39:15;;;;;;;;;;;;;;;26.02;39.90;99367.50;6083659;23;7209;-73
2023/10/13 16:41:44;;;;;;;;;;;;;;;26.01;40.05;99357.91;6084399;23;6982;-72
2023/10/13 16:44:11;;;;;;;;;;;;;;;26.00;39.64;99357.03;6076752;23;7118;-73
2023/10/13 16:46:40;;;;;;;;;;;;;;;25.98;40.20;99360.59;6031217;23;7837;-73
2023/10/13 16:49:06;;;;;;;;;;;;;;;25.95;40.52;99358.97;5982628;23;6958;-73
2023/10/13 16:51:33;;;;;;;;;;;;;;;25.88;40.99;99353.06;6021199;23;6968;-73
2023/10/13 16:53:59;;;;;;;;;;;;;;;25.82;40.17;99350.63;6059626;23;6831;-72
2023/10/13 16:56:25;;;;;;;;;;;;;;;25.77;40.62;99356.00;6058747;23;7269;-73
2023/10/13 16:58:54;;;;;;;;;;;;;;;25.74;41.04;99353.50;6057797;23;7037;-72
2023/10/13 17:01:24;;;;;;;;;;;;;;;25.73;41.15;99357.00;6058568;23;6855;-73
2023/10/13 17:03:50;;;;;;;;;;;;;;;25.71;41.39;99347.50;6059354;23;7069;-73
2023/10/13 17:06:16;;;;;;;;;;;;;;;25.61;41.41;99363.50;6035776;23;7038;-72
2023/10/13 17:08:42;;;;;;;;;;;;;;;25.44;41.94;99368.38;6036750;23;6783;-73
2023/10/13 17:11:15;;;;;;;;;;;;;;;25.29;42.52;99360.03;6060691;23;7082;-72
2023/10/13 17:13:51;;;;;;;;;;;;;;;25.08;42.98;99365.00;6056562;23;7291;-73